Willsboro Point, New York
Current Conditions -  °F | °C
As of 12:54 AM on Friday 19 Dec 2014 (Local Time) from KBTV Reporting Station
Light Snow Light Snow  
Wind Chill: 22°   Ceiling: 1800
Heat Index: 29°   Visibility: 9mi
Dew Point: 21°   Wind: 7mph
Humidity: 72%   Direction: 310°NW
Pressure: 29.93"   Gusts: NA
Location:  44.3585°N, 73.4161°W
Report Text: KBTV 190554Z 31006KT 9SM -SN OVC018 M02/M06 A2993 RMK AO2 SLP140 P0000 60000 T10171061 10000 21017 50002
Loading
Personal Weather Stations






























Interactive Weather Map New forecast layout! Learn more

10-Day Weather Forecast

Advertisements
Track Severe Weather on mobile